createdAt,value
2023-01-23T00:01:09.908Z,97.89
2023-01-23T00:03:36.328Z,97.93
2023-01-23T00:06:06.021Z,98.56
2023-01-23T00:08:33.133Z,98.34
2023-01-23T00:11:06.501Z,98.53
2023-01-23T00:13:33.903Z,98.20
2023-01-23T00:16:04.254Z,99.17
2023-01-23T00:18:30.741Z,98.18
2023-01-23T00:20:58.389Z,97.83
2023-01-23T00:23:24.796Z,98.52
2023-01-23T00:25:51.232Z,97.47
2023-01-23T00:28:18.283Z,97.76
2023-01-23T00:30:44.948Z,98.51
2023-01-23T00:33:11.419Z,98.24
2023-01-23T00:35:37.822Z,98.07
2023-01-23T00:38:04.264Z,97.96
2023-01-23T00:40:30.739Z,98.17
2023-01-23T00:42:57.171Z,97.11
2023-01-23T00:45:23.556Z,97.22
2023-01-23T00:47:50.042Z,97.16
2023-01-23T00:50:16.759Z,97.54
2023-01-23T00:52:43.177Z,97.52
2023-01-23T00:55:10.096Z,98.14
2023-01-23T00:57:36.534Z,98.46
2023-01-23T01:00:04.330Z,97.92
2023-01-23T01:02:30.788Z,98.31
2023-01-23T01:04:57.434Z,98.60
2023-01-23T01:07:24.415Z,97.48
2023-01-23T01:09:50.864Z,97.99
2023-01-23T01:12:17.574Z,97.64
2023-01-23T01:14:43.964Z,97.67
2023-01-23T01:17:10.385Z,98.46
2023-01-23T01:19:36.852Z,97.56
2023-01-23T01:22:03.640Z,97.45
2023-01-23T01:24:30.017Z,97.96
2023-01-23T01:26:56.488Z,98.15
2023-01-23T01:29:23.136Z,97.53
2023-01-23T01:31:49.559Z,97.23
2023-01-23T01:34:16.171Z,97.30
2023-01-23T01:36:42.609Z,98.46
2023-01-23T01:39:09.048Z,97.38
2023-01-23T01:41:35.824Z,98.14
2023-01-23T01:44:02.607Z,98.08
2023-01-23T01:46:30.861Z,98.03
2023-01-23T01:49:09.759Z,97.93
2023-01-23T01:51:44.637Z,97.56
2023-01-23T01:54:37.344Z,98.28
2023-01-23T01:57:22.084Z,97.57
2023-01-23T02:00:00.571Z,97.82
2023-01-23T02:02:33.513Z,98.04
2023-01-23T02:05:03.326Z,98.79
2023-01-23T02:07:37.469Z,97.67
2023-01-23T02:10:06.377Z,98.43
2023-01-23T02:12:34.967Z,97.35
2023-01-23T02:15:04.320Z,98.45
2023-01-23T02:17:30.809Z,98.65
2023-01-23T02:19:59.513Z,97.74
2023-01-23T02:22:32.109Z,98.41
2023-01-23T02:25:31.561Z,97.64
2023-01-23T02:27:58.240Z,98.72
2023-01-23T02:30:24.709Z,97.64
2023-01-23T02:32:51.103Z,98.67
2023-01-23T02:35:28.113Z,98.43
2023-01-23T02:37:56.343Z,98.25
2023-01-23T02:40:33.990Z,98.26
2023-01-23T02:43:00.418Z,98.26
2023-01-23T02:45:27.426Z,97.79
2023-01-23T02:47:53.908Z,97.07
2023-01-23T02:50:20.537Z,97.55
2023-01-23T02:52:47.222Z,98.59
2023-01-23T02:55:13.857Z,97.39
2023-01-23T02:57:40.266Z,97.06
2023-01-23T03:00:16.075Z,97.69
2023-01-23T03:02:43.576Z,97.41
2023-01-23T03:05:10.258Z,97.73
2023-01-23T03:07:36.780Z,98.32
2023-01-23T03:10:04.335Z,97.49
2023-01-23T03:12:30.813Z,98.12
2023-01-23T03:14:58.615Z,98.18
2023-01-23T03:17:25.456Z,96.97
2023-01-23T03:19:52.218Z,97.25
2023-01-23T03:22:18.706Z,97.27
2023-01-23T03:24:45.174Z,96.88
2023-01-23T03:27:11.635Z,96.71
2023-01-23T03:29:56.700Z,97.37
2023-01-23T03:32:23.216Z,97.44
2023-01-23T03:34:49.632Z,97.31
2023-01-23T03:37:17.509Z,96.69
2023-01-23T03:40:02.589Z,96.57
2023-01-23T03:42:29.050Z,97.14
2023-01-23T03:44:55.489Z,96.85
2023-01-23T03:47:21.999Z,97.05
2023-01-23T03:49:48.601Z,97.46
2023-01-23T03:52:15.027Z,96.79
2023-01-23T03:54:42.146Z,96.81
2023-01-23T03:57:08.620Z,96.79
2023-01-23T03:59:35.062Z,97.31
2023-01-23T04:02:04.774Z,96.41
2023-01-23T04:04:32.381Z,96.80
2023-01-23T04:06:58.950Z,96.52
2023-01-23T04:09:27.823Z,96.01
2023-01-23T04:11:55.524Z,95.98
2023-01-23T04:14:23.146Z,96.15
2023-01-23T04:16:49.668Z,97.16
2023-01-23T04:19:19.616Z,96.98
2023-01-23T04:21:47.200Z,97.32
2023-01-23T04:24:13.629Z,96.58
2023-01-23T04:26:40.073Z,96.78
2023-01-23T04:29:06.531Z,96.90
2023-01-23T04:31:33.242Z,96.47
2023-01-23T04:33:59.680Z,95.91
2023-01-23T04:36:26.086Z,97.00
2023-01-23T04:38:52.479Z,96.50
2023-01-23T04:41:24.111Z,96.79
2023-01-23T04:43:50.586Z,97.25
2023-01-23T04:46:17.070Z,97.57
2023-01-23T04:48:43.529Z,96.90
2023-01-23T04:51:10.216Z,96.30
2023-01-23T04:53:36.760Z,97.02
2023-01-23T04:56:03.900Z,96.53
2023-01-23T04:58:30.736Z,97.29
2023-01-23T05:01:05.082Z,96.99
2023-01-23T05:03:32.793Z,97.61
2023-01-23T05:05:59.181Z,97.00
2023-01-23T05:08:25.565Z,96.88
2023-01-23T05:10:51.991Z,96.54
2023-01-23T05:13:18.467Z,96.86
2023-01-23T05:15:44.969Z,96.23
2023-01-23T05:18:11.382Z,95.72
2023-01-23T05:20:38.155Z,96.53
2023-01-23T05:23:04.588Z,95.29
2023-01-23T05:25:31.033Z,96.04
2023-01-23T05:27:57.474Z,96.38
2023-01-23T05:30:23.974Z,95.61
2023-01-23T05:32:50.540Z,95.58
2023-01-23T05:35:17.206Z,96.37
2023-01-23T05:37:43.865Z,95.65
2023-01-23T05:40:11.724Z,95.98
2023-01-23T05:42:38.117Z,95.13
2023-01-23T05:45:05.224Z,96.35
2023-01-23T05:47:31.702Z,95.48
2023-01-23T05:49:58.158Z,95.67
2023-01-23T05:52:24.675Z,95.53
2023-01-23T05:54:51.072Z,95.79
2023-01-23T05:57:17.688Z,95.79
2023-01-23T05:59:44.430Z,96.18
2023-01-23T06:02:11.211Z,96.12
2023-01-23T06:04:37.653Z,96.92
2023-01-23T06:07:04.116Z,96.06
2023-01-23T06:09:30.557Z,96.96
2023-01-23T06:11:56.976Z,96.15
2023-01-23T06:14:23.395Z,95.50
2023-01-23T06:16:49.780Z,96.69
2023-01-23T06:19:16.181Z,96.24
2023-01-23T06:21:42.610Z,95.43
2023-01-23T06:24:09.043Z,95.78
2023-01-23T06:26:35.515Z,95.16
2023-01-23T06:29:01.935Z,95.63
2023-01-23T06:31:30.395Z,95.78
2023-01-23T06:33:56.939Z,95.97
2023-01-23T06:36:23.452Z,96.66
2023-01-23T06:38:50.028Z,95.39
2023-01-23T06:41:18.305Z,95.70
2023-01-23T06:43:46.146Z,94.90
2023-01-23T06:46:12.671Z,96.21
2023-01-23T06:48:39.287Z,95.28
2023-01-23T06:51:06.533Z,93.65
2023-01-23T06:53:33.097Z,93.95
2023-01-23T06:56:05.031Z,94.45
2023-01-23T06:58:32.245Z,93.55
2023-01-23T07:00:58.985Z,92.38
2023-01-23T07:03:25.437Z,92.87
2023-01-23T07:05:52.224Z,91.26
2023-01-23T07:08:18.678Z,92.11
2023-01-23T07:10:45.052Z,92.52
2023-01-23T07:13:11.926Z,91.89
2023-01-23T07:15:40.926Z,92.45
2023-01-23T07:18:07.644Z,92.76
2023-01-23T07:20:34.103Z,91.97
2023-01-23T07:23:00.528Z,92.54
2023-01-23T07:25:27.000Z,93.01
2023-01-23T07:27:53.427Z,92.72
2023-01-23T07:30:20.321Z,92.88
2023-01-23T07:32:46.840Z,92.36
2023-01-23T07:35:13.577Z,92.70
2023-01-23T07:37:39.940Z,93.28
2023-01-23T07:40:06.704Z,92.28
2023-01-23T07:42:33.137Z,91.90
2023-01-23T07:44:59.612Z,92.08
2023-01-23T07:47:26.015Z,93.64
2023-01-23T07:49:52.537Z,92.14
2023-01-23T07:52:19.108Z,92.72
2023-01-23T07:54:45.494Z,92.64
2023-01-23T07:57:12.018Z,92.69
2023-01-23T07:59:38.576Z,92.64
2023-01-23T08:02:05.026Z,93.25
2023-01-23T08:04:31.462Z,93.09
2023-01-23T08:06:57.896Z,92.93
2023-01-23T08:09:24.303Z,93.81
2023-01-23T08:11:52.416Z,93.52
2023-01-23T08:14:19.337Z,93.91
2023-01-23T08:16:49.539Z,93.54
2023-01-23T08:19:16.184Z,94.03
2023-01-23T08:21:42.811Z,93.69
2023-01-23T08:24:11.207Z,94.20
2023-01-23T08:26:37.616Z,94.49
2023-01-23T08:29:04.197Z,94.96
2023-01-23T08:31:30.787Z,94.59
2023-01-23T08:33:57.373Z,94.94
2023-01-23T08:36:23.828Z,94.43
2023-01-23T08:38:50.260Z,95.13
2023-01-23T08:41:16.771Z,93.95
2023-01-23T08:43:43.354Z,94.83
2023-01-23T08:46:10.610Z,95.06
2023-01-23T08:48:37.536Z,94.54
2023-01-23T08:51:06.490Z,93.72
2023-01-23T08:53:33.484Z,94.60
2023-01-23T08:56:05.295Z,94.16
2023-01-23T08:58:31.890Z,95.13
2023-01-23T09:00:58.512Z,94.59
2023-01-23T09:03:25.121Z,94.71
2023-01-23T09:05:51.600Z,93.27
2023-01-23T09:08:18.167Z,94.26
2023-01-23T09:10:44.669Z,92.11
2023-01-23T09:13:11.562Z,91.51
2023-01-23T09:15:39.413Z,91.75
2023-01-23T09:18:06.290Z,92.82
2023-01-23T09:20:33.029Z,91.28
2023-01-23T09:22:59.516Z,90.98
2023-01-23T09:25:25.924Z,90.45
2023-01-23T09:27:52.312Z,91.48
2023-01-23T09:30:19.016Z,90.33
2023-01-23T09:32:45.662Z,90.46
2023-01-23T09:35:12.075Z,89.55
2023-01-23T09:38:00.076Z,90.27
2023-01-23T09:40:32.504Z,90.12
2023-01-23T09:43:03.383Z,90.70
2023-01-23T09:45:30.406Z,89.73
2023-01-23T09:48:15.601Z,90.59
2023-01-23T09:50:55.410Z,90.50
2023-01-23T09:53:23.995Z,90.77
2023-01-23T09:56:00.539Z,89.62
2023-01-23T09:58:58.406Z,90.59
2023-01-23T10:01:26.673Z,91.07
2023-01-23T10:03:53.102Z,90.05
2023-01-23T10:06:25.758Z,89.51
2023-01-23T10:09:30.613Z,90.30
2023-01-23T10:12:18.399Z,89.11
2023-01-23T10:14:47.761Z,89.79
2023-01-23T10:17:14.139Z,88.68
2023-01-23T10:19:43.331Z,87.68
2023-01-23T10:23:05.598Z,89.26
2023-01-23T10:25:37.527Z,87.76
2023-01-23T10:28:24.011Z,88.18
2023-01-23T10:30:53.778Z,88.54
2023-01-23T10:33:20.483Z,88.50
2023-01-23T10:35:50.648Z,88.76
2023-01-23T10:38:26.955Z,89.27
2023-01-23T10:41:11.932Z,88.71
2023-01-23T10:43:38.718Z,89.63
2023-01-23T10:46:15.632Z,89.45
2023-01-23T10:48:44.878Z,90.24
2023-01-23T10:51:33.014Z,88.44
2023-01-23T10:54:11.450Z,88.70
2023-01-23T10:56:46.611Z,88.95
2023-01-23T10:59:20.828Z,89.91
2023-01-23T11:02:16.119Z,87.26
2023-01-23T11:04:44.820Z,88.72
2023-01-23T11:07:16.529Z,87.55
2023-01-23T11:10:01.199Z,87.81
2023-01-23T11:12:32.557Z,88.02
2023-01-23T11:15:36.493Z,88.75
2023-01-23T11:18:25.157Z,89.22
2023-01-23T11:20:55.667Z,88.60
2023-01-23T11:23:22.289Z,89.03
2023-01-23T11:25:50.545Z,89.41
2023-01-23T11:28:23.712Z,89.07
2023-01-23T11:31:12.307Z,88.11
2023-01-23T11:33:47.847Z,89.09
2023-01-23T11:36:17.038Z,87.94
2023-01-23T11:38:52.508Z,89.28
2023-01-23T11:41:20.441Z,90.01
2023-01-23T11:43:46.864Z,89.52
2023-01-23T11:46:42.868Z,89.00
2023-01-23T11:49:24.624Z,89.95
2023-01-23T11:52:11.984Z,89.30
2023-01-23T11:54:58.392Z,89.05
2023-01-23T11:57:44.045Z,89.39
2023-01-23T12:00:22.539Z,89.68
2023-01-23T12:03:04.637Z,89.90
2023-01-23T12:05:46.261Z,89.04
2023-01-23T12:08:24.933Z,88.54
2023-01-23T12:11:10.697Z,88.83
2023-01-23T12:14:22.583Z,88.45
2023-01-23T12:17:09.053Z,89.08
2023-01-23T12:20:11.945Z,89.38
2023-01-23T12:22:49.937Z,89.63
2023-01-23T12:25:19.736Z,91.10
2023-01-23T12:27:48.935Z,89.09
2023-01-23T12:30:30.014Z,89.62
2023-01-23T12:33:50.177Z,90.33
2023-01-23T12:36:48.579Z,89.97
2023-01-23T12:39:42.491Z,89.95
2023-01-23T12:42:13.350Z,91.21
2023-01-23T12:44:56.854Z,91.56
2023-01-23T12:47:28.672Z,91.70
2023-01-23T12:50:25.092Z,89.93
2023-01-23T12:52:57.674Z,90.17
2023-01-23T12:55:29.458Z,89.65
2023-01-23T12:58:08.371Z,89.31
2023-01-23T13:00:58.766Z,89.64
2023-01-23T13:03:55.839Z,89.60
2023-01-23T13:07:10.579Z,89.90
2023-01-23T13:09:51.681Z,90.99
2023-01-23T13:12:21.629Z,90.25
2023-01-23T13:15:13.804Z,89.85
2023-01-23T13:17:39.774Z,90.47
2023-01-23T13:20:50.537Z,90.94
2023-01-23T13:23:30.341Z,89.96
2023-01-23T13:26:15.196Z,90.17
2023-01-23T13:28:48.357Z,89.99
2023-01-23T13:31:30.218Z,90.66
2023-01-23T13:34:06.759Z,90.53
2023-01-23T13:36:37.471Z,90.52
2023-01-23T13:39:13.159Z,89.50
2023-01-23T13:41:39.612Z,89.67
2023-01-23T13:44:35.769Z,90.67
2023-01-23T14:24:55.085Z,91.45
2023-01-23T14:27:51.424Z,91.56
2023-01-23T14:30:24.742Z,90.93
2023-01-23T14:32:51.244Z,90.67
2023-01-23T14:35:29.456Z,90.09
2023-01-23T14:37:59.443Z,90.31
2023-01-23T14:40:28.769Z,89.91
2023-01-23T14:42:58.674Z,90.58
2023-01-23T14:45:28.757Z,90.00
2023-01-23T14:48:05.188Z,90.50
2023-01-23T14:50:32.471Z,90.55
2023-01-23T14:53:05.364Z,90.87
2023-01-23T14:55:36.016Z,90.64
2023-01-23T14:58:03.660Z,90.67
2023-01-23T15:00:30.552Z,90.38
2023-01-23T15:02:57.056Z,90.06
2023-01-23T15:05:26.743Z,90.55
2023-01-23T15:08:07.335Z,92.05
2023-01-23T15:10:40.831Z,90.80
2023-01-23T15:13:12.946Z,90.29
2023-01-23T15:15:44.754Z,90.11
2023-01-23T15:18:23.145Z,90.28
2023-01-23T15:21:02.902Z,90.34
2023-01-23T15:23:33.420Z,90.84
2023-01-23T15:26:21.638Z,90.28
2023-01-23T15:28:51.041Z,90.23
2023-01-23T15:31:23.316Z,91.63
2023-01-23T15:33:49.926Z,91.42
2023-01-23T15:36:28.199Z,89.35
2023-01-23T15:38:56.982Z,90.40
2023-01-23T15:41:42.630Z,91.32
2023-01-23T15:44:17.775Z,91.19
2023-01-23T15:46:44.417Z,90.44
2023-01-23T15:49:24.454Z,91.07
2023-01-23T15:51:51.689Z,91.29
2023-01-23T15:54:25.225Z,91.62
2023-01-23T15:57:05.620Z,91.14
2023-01-23T15:59:33.997Z,90.13
2023-01-23T16:02:00.542Z,91.49
2023-01-23T16:04:26.987Z,91.85
2023-01-23T16:06:53.440Z,91.65
2023-01-23T16:09:26.729Z,91.05
2023-01-23T16:11:53.294Z,90.81
2023-01-23T16:14:20.293Z,91.83
2023-01-23T16:16:46.871Z,91.27
2023-01-23T16:19:13.361Z,92.61
2023-01-23T16:21:42.204Z,91.60
2023-01-23T16:24:16.707Z,91.44
2023-01-23T16:26:43.264Z,92.28
2023-01-23T16:29:26.413Z,90.76
2023-01-23T16:31:53.480Z,91.81
2023-01-23T16:34:20.029Z,91.17
2023-01-23T16:36:46.849Z,90.56
2023-01-23T16:39:21.813Z,92.48
2023-01-23T16:41:49.083Z,92.11
2023-01-23T16:44:19.050Z,91.70
2023-01-23T16:46:46.095Z,91.88
2023-01-23T16:49:13.408Z,90.46
2023-01-23T16:51:41.886Z,90.98
2023-01-23T16:54:18.739Z,92.55
2023-01-23T16:56:46.021Z,92.18
2023-01-23T16:59:19.112Z,92.18
2023-01-23T17:01:48.489Z,91.63
2023-01-23T17:04:18.044Z,91.99
2023-01-23T17:06:44.836Z,92.09
2023-01-23T17:09:12.626Z,91.30
2023-01-23T17:11:41.751Z,91.84
2023-01-23T17:14:16.773Z,92.48
2023-01-23T17:16:43.453Z,91.72
2023-01-23T17:19:17.403Z,92.47
2023-01-23T17:21:44.387Z,93.20
2023-01-23T17:24:15.510Z,92.12
2023-01-23T17:26:42.305Z,92.88
2023-01-23T17:29:08.718Z,92.06
2023-01-23T17:31:35.270Z,91.92
2023-01-23T17:34:03.049Z,92.13
2023-01-23T17:36:29.587Z,92.78
2023-01-23T17:38:57.977Z,91.87
2023-01-23T17:41:24.461Z,92.04
2023-01-23T17:43:52.633Z,92.27
2023-01-23T17:46:31.166Z,92.75
2023-01-23T17:48:57.588Z,92.30
2023-01-23T17:51:25.781Z,92.02
2023-01-23T17:53:52.569Z,93.50
2023-01-23T17:56:19.088Z,93.09
2023-01-23T17:58:45.621Z,93.57
2023-01-23T18:01:17.825Z,93.36
2023-01-23T18:03:44.863Z,94.12
2023-01-23T18:06:11.349Z,92.80
2023-01-23T18:08:42.199Z,93.30
2023-01-23T18:11:16.887Z,93.50
2023-01-23T18:13:53.562Z,93.58
2023-01-23T18:16:24.613Z,93.82
2023-01-23T18:18:58.285Z,94.05
2023-01-23T18:21:25.236Z,94.15
2023-01-23T18:23:51.927Z,92.98
2023-01-23T18:26:36.645Z,93.05
2023-01-23T18:29:15.554Z,94.17
2023-01-23T18:32:15.182Z,93.89
2023-01-23T18:35:14.178Z,93.84
2023-01-23T18:38:15.751Z,94.23
2023-01-23T18:40:49.268Z,94.34
2023-01-23T18:43:15.573Z,93.77
2023-01-23T18:45:42.250Z,93.75
2023-01-23T18:48:24.666Z,94.73
2023-01-23T18:51:21.369Z,94.22
2023-01-23T18:54:09.767Z,94.21
2023-01-23T18:56:39.420Z,94.16
2023-01-23T18:59:39.649Z,94.21
2023-01-23T19:02:30.987Z,94.70
2023-01-23T19:05:09.978Z,95.15
2023-01-23T19:07:39.757Z,94.46
2023-01-23T19:10:07.348Z,94.23
2023-01-23T19:12:44.649Z,94.48
2023-01-23T19:15:35.219Z,94.70
2023-01-23T19:18:39.201Z,95.33
2023-01-23T19:21:20.866Z,95.63
2023-01-23T19:23:58.297Z,94.75
2023-01-23T19:26:34.254Z,94.26
2023-01-23T19:29:19.332Z,94.28
2023-01-23T19:32:03.104Z,94.90
2023-01-23T19:34:31.054Z,94.54
2023-01-23T19:36:57.523Z,93.63
2023-01-23T19:39:23.930Z,94.11
2023-01-23T19:41:50.726Z,94.48
2023-01-23T19:44:18.706Z,94.62
2023-01-23T19:46:45.999Z,94.32
2023-01-23T19:49:13.658Z,94.31
2023-01-23T19:51:40.484Z,94.05
2023-01-23T19:54:09.356Z,94.09
2023-01-23T19:56:36.398Z,94.78
2023-01-23T19:59:03.013Z,93.78
2023-01-23T20:01:49.937Z,94.47
2023-01-23T20:04:19.909Z,94.83
2023-01-23T20:06:46.375Z,94.82
2023-01-23T20:09:14.591Z,94.43
2023-01-23T20:11:41.992Z,94.14
2023-01-23T20:14:08.482Z,94.32
2023-01-23T20:16:35.059Z,93.94
2023-01-23T20:19:01.481Z,94.29
2023-01-23T20:21:27.934Z,94.66
2023-01-23T20:23:55.868Z,94.84
2023-01-23T20:26:23.129Z,94.82
2023-01-23T20:28:53.123Z,93.44
2023-01-23T20:31:19.977Z,94.75
2023-01-23T20:33:46.439Z,94.56
2023-01-23T20:36:13.816Z,93.95
2023-01-23T20:38:40.796Z,93.97
2023-01-23T20:41:12.822Z,94.76
2023-01-23T20:43:39.611Z,94.50
2023-01-23T20:46:07.141Z,93.74
2023-01-23T20:48:37.769Z,94.87
2023-01-23T20:51:06.060Z,94.16
2023-01-23T20:53:34.800Z,93.55
2023-01-23T20:56:07.968Z,93.34
2023-01-23T20:58:54.196Z,93.59
2023-01-23T21:01:23.586Z,94.24
2023-01-23T21:03:50.431Z,93.95
2023-01-23T21:06:17.669Z,93.51
2023-01-23T21:08:44.434Z,93.02
2023-01-23T21:11:16.450Z,93.16
2023-01-23T21:13:44.069Z,93.13
2023-01-23T21:16:14.866Z,93.30
2023-01-23T21:18:44.713Z,94.14
2023-01-23T21:21:13.381Z,93.82
2023-01-23T21:23:39.810Z,92.89
2023-01-23T21:26:06.516Z,93.34
2023-01-23T21:28:35.444Z,92.40
2023-01-23T21:31:16.623Z,93.03
2023-01-23T21:33:44.082Z,93.98
2023-01-23T21:36:11.652Z,93.83
2023-01-23T21:38:38.547Z,93.37
2023-01-23T21:41:05.292Z,93.27
2023-01-23T21:43:31.729Z,93.50
2023-01-23T21:45:58.637Z,94.15
2023-01-23T21:48:25.324Z,93.91
2023-01-23T21:50:51.771Z,94.03
2023-01-23T21:53:18.225Z,93.32
2023-01-23T21:55:44.637Z,94.00
2023-01-23T21:58:11.012Z,93.15
2023-01-23T22:00:56.224Z,93.06
2023-01-23T22:03:22.601Z,93.85
2023-01-23T22:05:49.190Z,93.87
2023-01-23T22:08:15.620Z,94.35
2023-01-23T22:10:42.046Z,94.57
2023-01-23T22:13:08.453Z,94.97
2023-01-23T22:15:34.942Z,94.45
2023-01-23T22:18:01.366Z,94.13
2023-01-23T22:20:27.774Z,94.43
2023-01-23T22:22:54.174Z,94.43
2023-01-23T22:25:21.802Z,95.22
2023-01-23T22:27:48.420Z,94.15
2023-01-23T22:30:14.910Z,94.75
2023-01-23T22:32:41.400Z,94.44
2023-01-23T22:35:09.271Z,94.81
2023-01-23T22:37:35.763Z,94.70
2023-01-23T22:40:02.416Z,94.86
2023-01-23T22:42:28.852Z,94.23
2023-01-23T22:44:55.326Z,94.55
2023-01-23T22:47:21.751Z,94.90
2023-01-23T22:49:48.151Z,94.33
2023-01-23T22:52:15.235Z,95.22
2023-01-23T22:54:41.673Z,95.18
2023-01-23T22:57:08.140Z,94.79
2023-01-23T22:59:34.548Z,95.44
2023-01-23T23:02:00.972Z,93.92
2023-01-23T23:04:27.380Z,95.06
2023-01-23T23:06:54.020Z,95.06
2023-01-23T23:09:20.434Z,94.97
2023-01-23T23:11:49.976Z,95.23
2023-01-23T23:14:16.407Z,95.07
2023-01-23T23:16:42.967Z,95.24
2023-01-23T23:19:09.745Z,95.42
2023-01-23T23:21:36.985Z,95.49
2023-01-23T23:24:06.224Z,95.37
2023-01-23T23:26:33.113Z,94.61
2023-01-23T23:29:00.426Z,95.35
2023-01-23T23:31:26.940Z,95.38
2023-01-23T23:33:53.542Z,94.94
2023-01-23T23:36:20.201Z,95.45
2023-01-23T23:38:46.676Z,95.12
2023-01-23T23:41:14.557Z,95.08
2023-01-23T23:43:41.453Z,95.03
2023-01-23T23:46:09.566Z,95.71
2023-01-23T23:48:37.165Z,95.36
2023-01-23T23:51:08.781Z,95.59
2023-01-23T23:53:35.744Z,95.08
2023-01-23T23:56:02.223Z,95.10
2023-01-23T23:58:29.221Z,95.00
